createdAt,value
2017-10-19T00:01:25.685Z,11.70
2017-10-19T00:03:52.027Z,12.00
2017-10-19T00:06:18.377Z,11.40
2017-10-19T00:08:44.823Z,11.70
2017-10-19T00:11:11.277Z,11.70
2017-10-19T00:13:37.597Z,11.70
2017-10-19T00:16:03.927Z,11.80
2017-10-19T00:18:30.994Z,11.70
2017-10-19T00:20:58.138Z,11.70
2017-10-19T00:23:25.218Z,11.80
2017-10-19T00:25:52.287Z,11.80
2017-10-19T00:28:19.338Z,11.80
2017-10-19T00:30:46.411Z,11.80
2017-10-19T00:33:12.774Z,12.30
2017-10-19T00:35:39.165Z,11.70
2017-10-19T00:38:06.300Z,11.70
2017-10-19T00:40:32.663Z,11.70
2017-10-19T00:42:58.995Z,11.70
2017-10-19T00:45:26.221Z,11.80
2017-10-19T00:47:52.597Z,12.10
2017-10-19T00:50:19.565Z,11.70
2017-10-19T00:52:46.002Z,11.80
2017-10-19T00:55:12.408Z,11.70
2017-10-19T00:57:38.864Z,11.70
2017-10-19T01:00:05.636Z,11.70
2017-10-19T01:02:31.994Z,11.70
2017-10-19T01:04:58.349Z,11.60
2017-10-19T01:07:24.735Z,11.60
2017-10-19T01:09:51.534Z,11.60
2017-10-19T01:12:17.865Z,11.60
2017-10-19T01:14:44.195Z,11.60
2017-10-19T01:17:10.534Z,12.00
2017-10-19T01:19:36.935Z,11.40
2017-10-19T01:22:04.005Z,11.60
2017-10-19T01:24:30.333Z,11.50
2017-10-19T01:26:57.458Z,11.50
2017-10-19T01:29:23.848Z,11.50
2017-10-19T01:31:50.462Z,11.70
2017-10-19T01:34:16.811Z,11.40
2017-10-19T01:36:43.112Z,11.50
2017-10-19T01:39:09.673Z,11.50
2017-10-19T01:41:36.003Z,11.30
2017-10-19T01:44:02.344Z,11.40
2017-10-19T01:46:28.768Z,11.40
2017-10-19T01:48:55.112Z,11.40
2017-10-19T01:51:22.368Z,11.80
2017-10-19T01:53:49.445Z,11.50
2017-10-19T01:56:15.786Z,11.50
2017-10-19T01:58:42.161Z,11.50
2017-10-19T02:01:08.543Z,11.50
2017-10-19T02:03:35.837Z,11.50
2017-10-19T02:06:02.185Z,11.50
2017-10-19T02:08:28.534Z,11.60
2017-10-19T02:10:54.862Z,11.60
2017-10-19T02:13:21.965Z,11.60
2017-10-19T02:15:48.310Z,11.40
2017-10-19T02:18:14.641Z,11.60
2017-10-19T02:20:41.751Z,11.70
2017-10-19T02:23:08.073Z,11.70
2017-10-19T02:25:34.409Z,11.60
2017-10-19T02:28:00.736Z,11.50
2017-10-19T02:30:27.121Z,11.70
2017-10-19T02:32:54.241Z,11.80
2017-10-19T02:35:20.597Z,11.80
2017-10-19T02:37:46.914Z,11.70
2017-10-19T02:40:13.714Z,12.10
2017-10-19T02:42:40.047Z,12.10
2017-10-19T02:45:06.397Z,11.80
2017-10-19T02:47:32.784Z,11.70
2017-10-19T02:49:59.282Z,11.80
2017-10-19T02:52:25.628Z,11.80
2017-10-19T02:54:52.097Z,11.90
2017-10-19T02:57:19.297Z,11.90
2017-10-19T02:59:45.840Z,11.90
2017-10-19T03:02:12.180Z,11.90
2017-10-19T03:04:38.522Z,12.00
2017-10-19T03:07:04.954Z,12.00
2017-10-19T03:09:32.074Z,12.00
2017-10-19T03:11:58.534Z,11.70
2017-10-19T03:14:24.868Z,12.00
2017-10-19T03:16:51.266Z,12.00
2017-10-19T03:19:17.866Z,12.00
2017-10-19T03:21:44.214Z,12.00
2017-10-19T03:24:11.289Z,12.00
2017-10-19T03:26:37.686Z,12.00
2017-10-19T03:29:04.029Z,12.10
2017-10-19T03:31:30.474Z,12.00
2017-10-19T03:33:56.826Z,12.00
2017-10-19T03:36:23.170Z,12.00
2017-10-19T03:38:50.309Z,11.90
2017-10-19T03:41:16.808Z,11.90
2017-10-19T03:43:43.175Z,11.90
2017-10-19T03:46:10.372Z,11.90
2017-10-19T03:48:37.899Z,11.90
2017-10-19T03:51:05.014Z,12.00
2017-10-19T03:53:31.349Z,11.90
2017-10-19T03:55:57.695Z,12.00
2017-10-19T03:58:24.036Z,12.00
2017-10-19T04:00:50.416Z,12.00
2017-10-19T04:03:16.825Z,12.40
2017-10-19T04:05:43.157Z,12.20
2017-10-19T04:08:09.590Z,12.10
2017-10-19T04:10:36.654Z,12.20
2017-10-19T04:13:03.030Z,12.20
2017-10-19T04:15:29.373Z,12.20
2017-10-19T04:17:55.850Z,12.20
2017-10-19T04:20:22.162Z,12.20
2017-10-19T04:22:48.660Z,12.20
2017-10-19T04:25:15.747Z,12.20
2017-10-19T04:27:42.074Z,12.10
2017-10-19T04:30:08.428Z,12.10
2017-10-19T04:32:34.750Z,12.10
2017-10-19T04:35:01.857Z,12.10
2017-10-19T04:37:28.205Z,12.10
2017-10-19T04:39:54.556Z,12.00
2017-10-19T04:42:21.705Z,12.10
2017-10-19T04:44:48.014Z,12.50
2017-10-19T04:47:15.118Z,12.10
2017-10-19T04:49:41.458Z,12.10
2017-10-19T04:52:07.812Z,12.30
2017-10-19T04:54:34.130Z,12.50
2017-10-19T04:57:00.465Z,12.20
2017-10-19T04:59:27.253Z,12.50
2017-10-19T05:01:54.353Z,12.20
2017-10-19T05:04:21.437Z,12.30
2017-10-19T05:06:47.784Z,12.60
2017-10-19T05:09:14.236Z,12.30
2017-10-19T05:11:40.824Z,12.30
2017-10-19T05:14:07.165Z,12.20
2017-10-19T05:16:33.501Z,12.30
2017-10-19T05:18:59.848Z,12.30
2017-10-19T05:21:26.229Z,12.40
2017-10-19T05:23:52.610Z,12.40
2017-10-19T05:26:19.017Z,12.30
2017-10-19T05:28:46.170Z,12.40
2017-10-19T05:31:12.556Z,12.40
2017-10-19T05:33:39.078Z,12.50
2017-10-19T05:36:06.184Z,12.30
2017-10-19T05:38:32.563Z,12.40
2017-10-19T05:40:58.881Z,12.40
2017-10-19T05:43:25.215Z,12.40
2017-10-19T05:45:51.541Z,12.10
2017-10-19T05:48:17.906Z,12.30
2017-10-19T05:50:44.276Z,12.30
2017-10-19T05:53:10.633Z,12.30
2017-10-19T05:55:36.990Z,12.20
2017-10-19T05:58:03.353Z,12.10
2017-10-19T06:00:29.688Z,12.00
2017-10-19T06:02:56.061Z,12.00
2017-10-19T06:05:22.404Z,12.00
2017-10-19T06:10:46.330Z,12.00
2017-10-19T06:13:12.700Z,11.90
2017-10-19T06:15:39.120Z,11.90
2017-10-19T06:18:06.228Z,11.80
2017-10-19T06:20:33.312Z,11.80
2017-10-19T06:22:59.677Z,11.80
2017-10-19T06:25:26.061Z,11.70
2017-10-19T06:27:52.397Z,11.80
2017-10-19T06:30:18.763Z,11.70
2017-10-19T06:32:45.968Z,11.80
2017-10-19T06:35:12.333Z,11.90
2017-10-19T06:37:38.911Z,11.90
2017-10-19T06:40:05.260Z,12.00
2017-10-19T06:42:31.619Z,12.00
2017-10-19T06:44:58.694Z,11.70
2017-10-19T06:47:25.057Z,12.10
2017-10-19T06:49:51.352Z,12.20
2017-10-19T06:52:18.371Z,12.80
2017-10-19T06:54:44.726Z,12.20
2017-10-19T06:57:11.137Z,12.30
2017-10-19T06:59:38.388Z,12.30
2017-10-19T07:02:05.466Z,12.40
2017-10-19T07:04:31.901Z,12.40
2017-10-19T07:06:58.284Z,12.40
2017-10-19T07:09:24.676Z,12.40
2017-10-19T07:11:51.044Z,12.40
2017-10-19T07:14:17.427Z,12.40
2017-10-19T07:16:43.783Z,12.50
2017-10-19T07:19:10.189Z,12.80
2017-10-19T07:21:37.259Z,12.40
2017-10-19T07:24:04.388Z,12.40
2017-10-19T07:26:30.720Z,12.40
2017-10-19T07:28:57.810Z,12.50
2017-10-19T07:31:24.887Z,12.50
2017-10-19T07:33:54.280Z,12.40
2017-10-19T07:36:20.666Z,12.60
2017-10-19T07:38:47.038Z,12.60
2017-10-19T07:41:18.333Z,12.60
2017-10-19T07:43:44.679Z,12.80
2017-10-19T07:46:11.776Z,12.90
2017-10-19T07:48:38.120Z,12.90
2017-10-19T07:51:04.457Z,13.00
2017-10-19T07:53:30.823Z,12.80
2017-10-19T07:56:00.839Z,13.00
2017-10-19T07:58:27.334Z,13.10
2017-10-19T08:00:53.703Z,13.20
2017-10-19T08:03:20.063Z,13.20
2017-10-19T08:05:47.251Z,13.40
2017-10-19T08:08:13.650Z,13.10
2017-10-19T08:10:39.985Z,13.50
2017-10-19T08:13:06.354Z,13.60
2017-10-19T08:15:35.182Z,13.30
2017-10-19T08:18:01.571Z,13.70
2017-10-19T08:20:27.841Z,14.10
2017-10-19T08:22:54.197Z,14.10
2017-10-19T08:25:20.565Z,14.20
2017-10-19T08:27:46.890Z,14.30
2017-10-19T08:30:13.234Z,14.40
2017-10-19T08:32:39.587Z,14.40
2017-10-19T08:35:10.198Z,14.60
2017-10-19T08:37:36.371Z,14.70
2017-10-19T08:40:03.253Z,15.00
2017-10-19T08:42:29.386Z,14.90
2017-10-19T08:44:55.512Z,15.20
2017-10-19T08:47:21.654Z,15.00
2017-10-19T08:49:47.985Z,15.10
2017-10-19T08:52:14.320Z,15.20
2017-10-19T08:54:45.744Z,15.30
2017-10-19T08:57:12.645Z,15.50
2017-10-19T08:59:38.961Z,15.60
2017-10-19T09:02:05.870Z,15.60
2017-10-19T09:04:32.737Z,15.70
2017-10-19T09:06:59.612Z,15.70
2017-10-19T09:09:25.772Z,15.70
2017-10-19T09:11:51.894Z,15.80
2017-10-19T09:14:18.047Z,15.80
2017-10-19T09:16:44.180Z,15.90
2017-10-19T09:19:10.388Z,16.00
2017-10-19T09:21:36.525Z,16.10
2017-10-19T09:24:03.397Z,16.10
2017-10-19T09:26:30.374Z,16.10
2017-10-19T09:28:56.555Z,16.20
2017-10-19T09:31:22.891Z,16.50
2017-10-19T09:33:49.232Z,16.30
2017-10-19T09:36:15.670Z,16.40
2017-10-19T09:38:42.035Z,16.50
2017-10-19T09:41:08.371Z,16.60
2017-10-19T09:43:34.683Z,16.70
2017-10-19T09:46:01.116Z,16.80
2017-10-19T09:48:28.190Z,16.80
2017-10-19T09:50:54.545Z,16.80
2017-10-19T09:53:21.637Z,16.90
2017-10-19T09:55:49.517Z,16.90
2017-10-19T09:58:16.367Z,16.90
2017-10-19T10:00:42.492Z,16.90
2017-10-19T10:03:09.446Z,17.20
2017-10-19T10:05:36.426Z,17.30
2017-10-19T10:08:02.649Z,17.20
2017-10-19T10:10:29.025Z,17.40
2017-10-19T10:12:55.516Z,17.50
2017-10-19T10:15:25.665Z,17.40
2017-10-19T10:17:51.809Z,17.50
2017-10-19T10:20:18.685Z,17.80
2017-10-19T10:22:45.695Z,17.90
2017-10-19T10:25:11.819Z,17.90
2017-10-19T10:27:37.960Z,18.00
2017-10-19T10:30:04.828Z,18.00
2017-10-19T10:32:30.975Z,18.00
2017-10-19T10:35:00.268Z,17.90
2017-10-19T10:37:26.403Z,18.00
2017-10-19T10:39:52.549Z,18.20
2017-10-19T10:42:18.679Z,18.20
2017-10-19T10:44:44.854Z,18.20
2017-10-19T10:47:11.016Z,18.30
2017-10-19T10:49:37.170Z,18.40
2017-10-19T10:52:04.045Z,18.50
2017-10-19T10:54:30.926Z,18.60
2017-10-19T10:57:01.485Z,18.60
2017-10-19T10:59:27.633Z,18.60
2017-10-19T11:01:54.597Z,18.80
2017-10-19T11:04:21.504Z,18.90
2017-10-19T11:06:47.638Z,18.90
2017-10-19T11:09:14.596Z,19.00
2017-10-19T11:11:40.756Z,18.90
2017-10-19T11:14:06.941Z,19.20
2017-10-19T11:16:39.434Z,19.20
2017-10-19T11:19:05.572Z,19.30
2017-10-19T11:21:31.771Z,19.40
2017-10-19T11:23:58.694Z,19.50
2017-10-19T11:26:24.853Z,19.50
2017-10-19T11:28:51.000Z,19.50
2017-10-19T11:31:17.887Z,19.70
2017-10-19T11:33:44.746Z,19.70
2017-10-19T11:36:12.603Z,19.70
2017-10-19T11:38:38.752Z,19.70
2017-10-19T11:41:04.897Z,19.70
2017-10-19T11:43:31.040Z,19.70
2017-10-19T11:45:57.171Z,19.70
2017-10-19T11:48:23.325Z,19.80
2017-10-19T11:50:49.465Z,19.80
2017-10-19T11:53:16.379Z,19.80
2017-10-19T11:55:42.513Z,19.80
2017-10-19T11:58:10.021Z,19.70
2017-10-19T12:00:36.181Z,19.80
2017-10-19T12:03:02.318Z,19.80
2017-10-19T12:05:28.437Z,19.80
2017-10-19T12:07:54.585Z,20.00
2017-10-19T12:10:20.712Z,20.00
2017-10-19T12:12:46.833Z,20.10
2017-10-19T12:15:13.749Z,20.30
2017-10-19T12:17:39.869Z,20.30
2017-10-19T12:20:10.547Z,20.30
2017-10-19T12:22:41.810Z,20.40
2017-10-19T12:25:08.699Z,20.30
2017-10-19T12:27:35.566Z,20.50
2017-10-19T12:30:02.549Z,20.50
2017-10-19T12:32:28.674Z,20.50
2017-10-19T12:34:54.822Z,20.50
2017-10-19T12:37:20.962Z,20.80
2017-10-19T12:39:47.222Z,20.50
2017-10-19T12:42:14.096Z,20.70
2017-10-19T12:44:41.004Z,20.60
2017-10-19T12:47:07.165Z,20.60
2017-10-19T12:49:33.382Z,20.80
2017-10-19T12:51:59.557Z,20.70
2017-10-19T12:54:26.442Z,20.70
2017-10-19T12:56:52.572Z,20.70
2017-10-19T12:59:18.822Z,20.70
2017-10-19T13:01:45.031Z,20.90
2017-10-19T13:04:11.905Z,20.90
2017-10-19T13:06:38.056Z,20.90
2017-10-19T13:09:04.229Z,20.90
2017-10-19T13:11:31.136Z,21.10
2017-10-19T13:13:57.278Z,21.10
2017-10-19T13:16:29.548Z,21.00
2017-10-19T13:18:56.703Z,21.00
2017-10-19T13:21:22.842Z,21.00
2017-10-19T13:23:48.989Z,20.90
2017-10-19T13:26:15.120Z,21.10
2017-10-19T13:28:41.259Z,21.20
2017-10-19T13:31:09.988Z,21.20
2017-10-19T13:33:36.157Z,21.20
2017-10-19T13:36:03.041Z,21.10
2017-10-19T13:38:29.159Z,21.10
2017-10-19T13:40:56.045Z,21.00
2017-10-19T13:43:22.269Z,21.00
2017-10-19T13:45:49.157Z,21.00
2017-10-19T13:48:15.437Z,21.00
2017-10-19T13:50:41.602Z,21.10
2017-10-19T13:53:07.774Z,21.00
2017-10-19T13:55:33.919Z,21.20
2017-10-19T13:58:00.084Z,21.00
2017-10-19T14:00:26.557Z,21.10
2017-10-19T14:02:52.708Z,21.30
2017-10-19T14:05:18.870Z,21.10
2017-10-19T14:07:45.757Z,21.00
2017-10-19T14:10:11.948Z,21.00
2017-10-19T14:12:38.229Z,21.00
2017-10-19T14:15:04.399Z,21.00
2017-10-19T14:17:31.034Z,21.00
2017-10-19T14:19:57.197Z,21.00
2017-10-19T14:22:23.420Z,21.00
2017-10-19T14:24:49.556Z,21.00
2017-10-19T14:27:15.723Z,21.00
2017-10-19T14:29:42.635Z,21.00
2017-10-19T14:32:10.034Z,21.00
2017-10-19T14:34:37.161Z,20.90
2017-10-19T14:37:03.325Z,20.90
2017-10-19T14:39:29.561Z,20.90
2017-10-19T14:41:55.708Z,20.80
2017-10-19T14:44:21.850Z,20.80
2017-10-19T14:46:48.026Z,20.80
2017-10-19T14:49:14.246Z,20.70
2017-10-19T14:51:40.419Z,20.80
2017-10-19T14:54:06.604Z,20.80
2017-10-19T14:56:33.238Z,20.90
2017-10-19T14:58:59.422Z,21.00
2017-10-19T15:01:26.591Z,21.00
2017-10-19T15:03:52.749Z,21.00
2017-10-19T15:06:19.026Z,20.90
2017-10-19T15:08:45.247Z,20.70
2017-10-19T15:11:11.485Z,20.80
2017-10-19T15:13:37.664Z,20.70
2017-10-19T15:16:04.024Z,20.60
2017-10-19T15:18:30.219Z,20.60
2017-10-19T15:20:56.388Z,20.60
2017-10-19T15:23:22.513Z,20.40
2017-10-19T15:25:48.784Z,20.40
2017-10-19T15:28:15.714Z,20.30
2017-10-19T15:30:42.121Z,20.20
2017-10-19T15:33:09.239Z,20.20
2017-10-19T15:35:35.587Z,20.20
2017-10-19T15:38:01.949Z,20.10
2017-10-19T15:40:29.088Z,19.90
2017-10-19T15:42:56.171Z,19.80
2017-10-19T15:45:23.418Z,19.80
2017-10-19T15:47:50.549Z,19.80
2017-10-19T15:50:16.888Z,19.80
2017-10-19T15:52:44.022Z,19.80
2017-10-19T15:55:10.575Z,19.80
2017-10-19T15:57:37.043Z,19.60
2017-10-19T16:00:03.424Z,19.70
2017-10-19T16:02:29.806Z,19.50
2017-10-19T16:04:56.154Z,19.50
2017-10-19T16:07:22.542Z,19.40
2017-10-19T16:09:48.910Z,19.40
2017-10-19T16:12:15.255Z,19.30
2017-10-19T16:14:41.592Z,19.20
2017-10-19T16:17:07.958Z,19.20
2017-10-19T16:19:34.308Z,19.00
2017-10-19T16:22:01.737Z,19.00
2017-10-19T16:24:28.060Z,18.80
2017-10-19T16:26:54.405Z,18.80
2017-10-19T16:29:20.762Z,18.70
2017-10-19T16:31:47.095Z,18.60
2017-10-19T16:36:44.597Z,18.50
2017-10-19T16:39:10.818Z,18.50
2017-10-19T16:41:36.954Z,18.30
2017-10-19T16:44:03.143Z,18.30
2017-10-19T16:46:29.312Z,18.30
2017-10-19T16:48:56.177Z,18.10
2017-10-19T16:51:24.857Z,18.10
2017-10-19T16:53:50.962Z,18.20
2017-10-19T16:56:17.897Z,18.10
2017-10-19T16:58:44.030Z,18.10
2017-10-19T17:01:11.021Z,18.10
2017-10-19T17:03:37.171Z,18.10
2017-10-19T17:06:07.805Z,18.20
2017-10-19T17:08:33.949Z,18.20
2017-10-19T17:11:00.110Z,18.20
2017-10-19T17:13:26.264Z,18.20
2017-10-19T17:15:52.498Z,18.20
2017-10-19T17:18:19.386Z,18.20
2017-10-19T17:20:50.808Z,18.10
2017-10-19T17:23:16.977Z,18.10
2017-10-19T17:25:43.104Z,18.10
2017-10-19T17:28:09.267Z,18.10
2017-10-19T17:30:36.148Z,18.10
2017-10-19T17:33:03.045Z,18.10
2017-10-19T17:35:29.234Z,18.10
2017-10-19T17:38:00.069Z,18.10
2017-10-19T17:40:26.257Z,18.10
2017-10-19T17:42:53.186Z,18.00
2017-10-19T17:45:19.365Z,18.20
2017-10-19T17:47:45.504Z,18.00
2017-10-19T17:50:11.655Z,18.00
2017-10-19T17:52:37.817Z,18.10
2017-10-19T17:55:06.256Z,17.70
2017-10-19T17:57:32.405Z,18.00
2017-10-19T17:59:58.554Z,18.00
2017-10-19T18:02:24.755Z,17.90
2017-10-19T18:04:50.883Z,17.80
2017-10-19T18:07:17.416Z,17.90
2017-10-19T18:09:44.288Z,17.90
2017-10-19T18:12:11.751Z,18.00
2017-10-19T18:14:37.938Z,18.00
2017-10-19T18:17:04.131Z,18.00
2017-10-19T18:19:31.107Z,18.00
2017-10-19T18:21:57.997Z,18.00
2017-10-19T18:24:24.149Z,18.00
2017-10-19T18:26:50.420Z,18.00
2017-10-19T18:29:23.188Z,18.00
2017-10-19T18:31:49.316Z,18.00
2017-10-19T18:34:15.430Z,17.90
2017-10-19T18:36:41.558Z,18.10
2017-10-19T18:39:07.723Z,18.10
2017-10-19T18:41:33.844Z,18.10
2017-10-19T18:43:59.970Z,18.10
2017-10-19T18:46:26.873Z,18.10
2017-10-19T18:48:56.666Z,18.10
2017-10-19T18:51:22.776Z,18.10
2017-10-19T18:53:48.902Z,18.20
2017-10-19T18:56:15.034Z,18.20
2017-10-19T18:58:41.305Z,18.30
2017-10-19T19:01:07.472Z,18.20
2017-10-19T19:03:33.683Z,18.00
2017-10-19T19:05:59.830Z,18.20
2017-10-19T19:08:25.986Z,18.00
2017-10-19T19:10:58.181Z,18.30
2017-10-19T19:13:24.300Z,18.20
2017-10-19T19:15:51.156Z,18.20
2017-10-19T19:18:18.853Z,18.20
2017-10-19T19:20:44.992Z,18.20
2017-10-19T19:23:11.241Z,18.20
2017-10-19T19:25:37.431Z,18.20
2017-10-19T19:28:03.565Z,18.20
2017-10-19T19:30:29.726Z,18.40
2017-10-19T19:32:56.614Z,18.10
2017-10-19T19:35:22.749Z,18.10
2017-10-19T19:37:48.888Z,18.10
2017-10-19T19:40:15.046Z,18.00
2017-10-19T19:42:41.249Z,18.00
2017-10-19T19:45:07.494Z,18.00
2017-10-19T19:47:34.373Z,18.00
2017-10-19T19:50:00.549Z,18.00
2017-10-19T19:52:26.717Z,18.00
2017-10-19T19:54:52.873Z,18.00
2017-10-19T19:57:19.124Z,18.00
2017-10-19T19:59:45.371Z,17.90
2017-10-19T20:02:11.523Z,17.80
2017-10-19T20:04:37.762Z,18.10
2017-10-19T20:07:04.621Z,17.80
2017-10-19T20:09:30.762Z,17.70
2017-10-19T20:11:57.620Z,17.50
2017-10-19T20:14:24.523Z,17.40
2017-10-19T20:16:50.784Z,17.40
2017-10-19T20:19:16.921Z,17.40
2017-10-19T20:21:43.056Z,17.40
2017-10-19T20:24:09.238Z,17.20
2017-10-19T20:26:35.365Z,17.30
2017-10-19T20:29:01.598Z,17.20
2017-10-19T20:31:28.461Z,17.10
2017-10-19T20:33:55.380Z,17.00
2017-10-19T20:36:21.537Z,17.00
2017-10-19T20:38:48.450Z,17.00
2017-10-19T20:41:14.613Z,17.00
2017-10-19T20:43:40.764Z,17.10
2017-10-19T20:46:06.937Z,17.10
2017-10-19T20:48:33.085Z,17.10
2017-10-19T20:50:59.208Z,17.10
2017-10-19T20:53:25.825Z,16.90
2017-10-19T20:55:51.946Z,16.90
2017-10-19T20:58:18.077Z,16.90
2017-10-19T21:00:44.218Z,16.80
2017-10-19T21:03:10.399Z,16.90
2017-10-19T21:05:36.713Z,16.80
2017-10-19T21:08:02.915Z,16.70
2017-10-19T21:10:29.104Z,17.20
2017-10-19T21:12:56.158Z,16.90
2017-10-19T21:15:22.434Z,16.90
2017-10-19T21:17:48.712Z,16.90
2017-10-19T21:20:14.954Z,16.90
2017-10-19T21:22:41.579Z,16.80
2017-10-19T21:25:07.756Z,16.80
2017-10-19T21:27:33.911Z,16.80
2017-10-19T21:30:00.077Z,16.80
2017-10-19T21:32:26.242Z,16.70
2017-10-19T21:34:53.125Z,16.80
2017-10-19T21:37:19.244Z,16.80
2017-10-19T21:39:45.402Z,16.80
2017-10-19T21:42:11.573Z,16.90
2017-10-19T21:44:37.715Z,16.80
2017-10-19T21:47:03.905Z,16.80
2017-10-19T21:49:30.047Z,16.90
2017-10-19T21:51:57.052Z,16.80
2017-10-19T21:54:23.233Z,16.80
2017-10-19T21:56:49.372Z,16.80
2017-10-19T21:59:15.521Z,16.80
2017-10-19T22:01:42.653Z,16.80
2017-10-19T22:04:08.809Z,16.90
2017-10-19T22:06:34.980Z,16.90
2017-10-19T22:09:01.903Z,17.00
2017-10-19T22:11:28.202Z,17.00
2017-10-19T22:13:54.516Z,16.90
2017-10-19T22:16:20.868Z,17.10
2017-10-19T22:18:47.428Z,17.00
2017-10-19T22:21:14.322Z,17.10
2017-10-19T22:23:40.460Z,17.10
2017-10-19T22:26:06.607Z,17.10
2017-10-19T22:28:32.833Z,17.10
2017-10-19T22:30:59.161Z,17.20
2017-10-19T22:33:25.506Z,17.20
2017-10-19T22:35:51.818Z,17.20
2017-10-19T22:38:18.902Z,17.30
2017-10-19T22:40:45.034Z,17.20
2017-10-19T22:43:11.296Z,17.40
2017-10-19T22:45:37.719Z,17.20
2017-10-19T22:48:04.940Z,17.20
2017-10-19T22:50:31.094Z,17.20
2017-10-19T22:52:58.220Z,17.20
2017-10-19T22:55:24.343Z,17.20
2017-10-19T22:57:50.599Z,16.90
2017-10-19T23:00:16.960Z,17.00
2017-10-19T23:02:43.095Z,17.70
2017-10-19T23:05:09.442Z,17.20
2017-10-19T23:07:35.774Z,17.20
2017-10-19T23:10:02.475Z,16.90
2017-10-19T23:12:28.618Z,17.30
2017-10-19T23:14:54.759Z,17.20
2017-10-19T23:17:21.837Z,17.20
2017-10-19T23:19:48.402Z,17.20
2017-10-19T23:22:14.585Z,17.30
2017-10-19T23:24:40.769Z,17.30
2017-10-19T23:27:07.113Z,17.30
2017-10-19T23:29:33.358Z,17.30
2017-10-19T23:31:59.730Z,17.30
2017-10-19T23:34:26.073Z,17.60
2017-10-19T23:36:52.434Z,17.30
2017-10-19T23:39:19.185Z,17.30
2017-10-19T23:41:45.563Z,17.30
2017-10-19T23:44:11.893Z,17.30
2017-10-19T23:46:38.252Z,16.90
2017-10-19T23:49:04.577Z,17.30
2017-10-19T23:51:30.991Z,17.70
2017-10-19T23:53:57.428Z,17.00
2017-10-19T23:56:23.772Z,17.50
2017-10-19T23:58:50.906Z,17.60
